createdAt,value
2022-09-05T00:00:03.321Z,98104.38
2022-09-05T00:02:35.989Z,98102.47
2022-09-05T00:05:25.388Z,98099.88
2022-09-05T00:08:03.550Z,98099.25
2022-09-05T00:10:50.332Z,98104.22
2022-09-05T00:13:33.474Z,98108.88
2022-09-05T00:16:22.423Z,98104.88
2022-09-05T00:24:19.942Z,98106.31
2022-09-05T00:24:27.280Z,98107.13
2022-09-05T00:25:30.359Z,98112.91
2022-09-05T00:28:25.371Z,98105.50
2022-09-05T00:31:53.609Z,98103.75
2022-09-05T00:34:18.802Z,98103.44
2022-09-05T00:36:49.371Z,98112.91
2022-09-05T00:39:20.574Z,98114.34
2022-09-05T00:41:51.136Z,98106.31
2022-09-05T00:44:21.144Z,98110.34
2022-09-05T00:46:58.854Z,98109.03
2022-09-05T00:49:34.092Z,98109.69
2022-09-05T00:52:05.951Z,98109.22
2022-09-05T00:54:51.727Z,98110.47
2022-09-05T00:57:50.993Z,98113.06
2022-09-05T01:00:21.288Z,98109.84
2022-09-05T01:03:20.746Z,98115.63
2022-09-05T01:06:25.440Z,98113.66
2022-09-05T01:09:07.423Z,98111.56
2022-09-05T01:11:46.448Z,98113.31
2022-09-05T01:14:37.947Z,98111.84
2022-09-05T01:17:19.793Z,98117.66
2022-09-05T01:20:20.060Z,98112.03
2022-09-05T01:23:24.746Z,98111.22
2022-09-05T01:26:05.784Z,98115.72
2022-09-05T01:29:16.678Z,98110.41
2022-09-05T01:31:41.569Z,98113.47
2022-09-05T01:34:24.901Z,98117.69
2022-09-05T01:37:07.594Z,98116.06
2022-09-05T01:40:16.169Z,98120.34
2022-09-05T01:43:06.019Z,98118.63
2022-09-05T01:45:50.622Z,98122.31
2022-09-05T01:48:31.666Z,98118.28
2022-09-05T01:51:28.891Z,98121.28
2022-09-05T01:54:18.541Z,98125.28
2022-09-05T01:57:07.161Z,98129.88
2022-09-05T01:59:45.259Z,98125.84
2022-09-05T02:02:38.015Z,98123.47
2022-09-05T02:05:48.884Z,98121.19
2022-09-05T02:08:37.110Z,98128.88
2022-09-05T02:11:07.586Z,98127.13
2022-09-05T02:13:53.673Z,98123.00
2022-09-05T02:16:27.549Z,98126.22
2022-09-05T02:19:06.445Z,98122.06
2022-09-05T02:21:55.697Z,98121.25
2022-09-05T02:24:29.202Z,98120.13
2022-09-05T02:28:05.113Z,98115.94
2022-09-05T02:30:09.721Z,98112.56
2022-09-05T02:32:47.952Z,98113.13
2022-09-05T02:35:26.576Z,98109.63
2022-09-05T02:38:23.873Z,98115.75
2022-09-05T02:45:19.934Z,98110.00
2022-09-05T02:45:21.586Z,98118.97
2022-09-05T02:46:46.709Z,98111.63
2022-09-05T02:50:02.959Z,98111.66
2022-09-05T02:57:29.159Z,98104.91
2022-09-05T02:57:34.739Z,98110.00
2022-09-05T02:58:07.418Z,98109.28
2022-09-05T03:00:41.528Z,98113.66
2022-09-05T03:03:20.671Z,98119.25
2022-09-05T03:05:57.940Z,98115.88
2022-09-05T03:08:46.364Z,98111.84
2022-09-05T03:11:45.079Z,98117.72
2022-09-05T03:14:59.970Z,98120.75
2022-09-05T03:17:53.682Z,98115.50
2022-09-05T03:21:09.559Z,98113.88
2022-09-05T03:24:12.660Z,98112.78
2022-09-05T03:27:18.956Z,98114.53
2022-09-05T03:30:08.894Z,98117.97
2022-09-05T03:33:07.704Z,98119.38
2022-09-05T03:36:31.359Z,98120.94
2022-09-05T03:39:42.442Z,98117.28
2022-09-05T03:42:33.328Z,98119.00
2022-09-05T03:45:29.857Z,98119.78
2022-09-05T03:48:31.948Z,98122.34
2022-09-05T03:57:07.182Z,98124.31
2022-09-05T03:57:12.691Z,98126.28
2022-09-05T03:57:51.859Z,98120.38
2022-09-05T04:00:25.799Z,98117.97
2022-09-05T04:08:07.635Z,98129.31
2022-09-05T04:08:40.944Z,98117.91
2022-09-05T04:08:53.813Z,98122.56
2022-09-05T04:11:33.696Z,98119.94
2022-09-05T04:14:06.968Z,98116.75
2022-09-05T04:16:46.648Z,98114.19
2022-09-05T04:19:22.679Z,98119.19
2022-09-05T04:21:58.651Z,98123.88
2022-09-05T04:24:31.380Z,98127.66
2022-09-05T04:27:17.405Z,98122.19
2022-09-05T04:29:58.739Z,98123.66
2022-09-05T04:32:39.874Z,98120.91
2022-09-05T04:35:31.898Z,98126.09
2022-09-05T04:38:11.660Z,98132.00
2022-09-05T04:40:43.858Z,98130.56
2022-09-05T04:43:21.003Z,98132.97
2022-09-05T04:45:54.712Z,98136.72
2022-09-05T04:48:29.677Z,98141.94
2022-09-05T04:51:08.343Z,98149.31
2022-09-05T04:54:09.491Z,98147.50
2022-09-05T04:56:43.688Z,98147.78
2022-09-05T05:01:44.430Z,98147.66
2022-09-05T05:06:00.291Z,98150.06
2022-09-05T05:06:11.400Z,98145.53
2022-09-05T05:08:06.846Z,98145.06
2022-09-05T05:15:20.377Z,98147.19
2022-09-05T05:18:08.955Z,98150.00
2022-09-05T05:18:13.403Z,98150.97
2022-09-05T05:19:24.757Z,98151.97
2022-09-05T05:21:56.310Z,98153.44
2022-09-05T05:24:29.579Z,98148.81
2022-09-05T05:27:05.267Z,98145.41
2022-09-05T05:29:44.552Z,98147.38
2022-09-05T05:32:24.897Z,98153.06
2022-09-05T05:35:15.156Z,98156.59
2022-09-05T05:37:47.493Z,98152.09
2022-09-05T05:40:26.005Z,98149.16
2022-09-05T05:43:15.260Z,98144.88
2022-09-05T05:45:44.444Z,98154.06
2022-09-05T05:48:30.220Z,98162.09
2022-09-05T05:51:13.909Z,98169.81
2022-09-05T05:53:52.627Z,98165.50
2022-09-05T05:56:40.461Z,98161.66
2022-09-05T05:59:41.900Z,98160.81
2022-09-05T06:03:24.807Z,98172.53
2022-09-05T06:06:09.446Z,98171.22
2022-09-05T06:12:06.929Z,98161.25
2022-09-05T06:15:00.009Z,98163.34
2022-09-05T06:15:27.332Z,98151.69
2022-09-05T06:18:45.516Z,98145.13
2022-09-05T06:22:10.812Z,98145.72
2022-09-05T06:25:16.839Z,98152.34
2022-09-05T06:28:18.148Z,98140.41
2022-09-05T06:30:57.163Z,98142.69
2022-09-05T06:34:00.536Z,98157.00
2022-09-05T06:36:49.023Z,98157.94
2022-09-05T06:39:25.925Z,98158.88
2022-09-05T06:42:36.734Z,98167.50
2022-09-05T06:45:28.219Z,98169.59
2022-09-05T06:48:11.404Z,98165.03
2022-09-05T06:51:09.552Z,98167.78
2022-09-05T06:54:10.945Z,98168.88
2022-09-05T06:57:08.445Z,98162.44
2022-09-05T07:00:19.581Z,98167.56
2022-09-05T07:03:15.251Z,98159.94
2022-09-05T07:05:55.711Z,98162.44
2022-09-05T07:08:35.393Z,98164.13
2022-09-05T07:11:16.944Z,98167.41
2022-09-05T07:14:01.209Z,98176.75
2022-09-05T07:16:41.814Z,98169.91
2022-09-05T07:19:27.344Z,98176.94
2022-09-05T07:22:18.413Z,98179.94
2022-09-05T07:24:58.225Z,98187.75
2022-09-05T07:27:46.835Z,98184.03
2022-09-05T07:30:24.546Z,98191.06
2022-09-05T07:32:55.143Z,98177.25
2022-09-05T07:35:29.415Z,98188.16
2022-09-05T07:38:07.472Z,98189.22
2022-09-05T07:40:39.920Z,98184.66
2022-09-05T07:43:18.826Z,98192.03
2022-09-05T07:45:56.216Z,98191.84
2022-09-05T07:48:34.295Z,98188.00
2022-09-05T07:56:17.161Z,98188.06
2022-09-05T07:56:52.642Z,98193.69
2022-09-05T07:57:22.536Z,98189.59
2022-09-05T07:59:41.953Z,98189.13
2022-09-05T08:02:12.775Z,98188.97
2022-09-05T08:04:42.855Z,98186.75
2022-09-05T08:07:47.117Z,98186.25
2022-09-05T08:10:10.548Z,98190.03
2022-09-05T08:13:22.399Z,98181.72
2022-09-05T08:16:02.749Z,98179.94
2022-09-05T08:18:33.293Z,98180.13
2022-09-05T08:21:11.557Z,98173.66
2022-09-05T08:23:52.140Z,98184.63
2022-09-05T08:26:30.724Z,98169.91
2022-09-05T08:29:06.142Z,98174.47
2022-09-05T08:31:42.547Z,98172.28
2022-09-05T08:34:16.131Z,98166.03
2022-09-05T08:36:47.400Z,98176.50
2022-09-05T08:39:21.680Z,98171.78
2022-09-05T08:42:10.732Z,98172.72
2022-09-05T08:46:40.509Z,98178.09
2022-09-05T08:47:45.442Z,98172.88
2022-09-05T08:50:34.947Z,98178.81
2022-09-05T08:53:45.847Z,98176.06
2022-09-05T08:56:18.077Z,98168.78
2022-09-05T08:59:31.951Z,98170.81
2022-09-05T09:02:45.267Z,98162.75
2022-09-05T09:05:14.578Z,98164.34
2022-09-05T09:07:52.789Z,98161.88
2022-09-05T09:10:35.301Z,98155.19
2022-09-05T09:13:37.580Z,98156.00
2022-09-05T09:16:10.444Z,98155.59
2022-09-05T09:18:58.524Z,98156.47
2022-09-05T09:21:35.809Z,98158.09
2022-09-05T09:24:14.165Z,98162.94
2022-09-05T09:26:50.903Z,98157.81
2022-09-05T09:29:19.855Z,98150.53
2022-09-05T09:32:02.965Z,98150.09
2022-09-05T09:35:21.314Z,98151.50
2022-09-05T09:37:59.856Z,98150.19
2022-09-05T09:40:53.594Z,98148.19
2022-09-05T09:43:35.760Z,98148.59
2022-09-05T09:46:17.898Z,98137.34
2022-09-05T09:49:23.111Z,98135.00
2022-09-05T09:52:36.849Z,98134.31
2022-09-05T09:55:43.064Z,98135.91
2022-09-05T09:58:38.147Z,98138.13
2022-09-05T10:01:35.845Z,98134.28
2022-09-05T10:10:38.353Z,98135.28
2022-09-05T10:10:50.601Z,98125.28
2022-09-05T10:11:22.795Z,98121.56
2022-09-05T10:14:08.626Z,98121.75
2022-09-05T10:17:14.345Z,98114.31
2022-09-05T10:20:10.112Z,98119.22
2022-09-05T10:22:59.356Z,98110.69
2022-09-05T10:26:00.802Z,98106.81
2022-09-05T10:28:40.188Z,98107.72
2022-09-05T10:34:18.812Z,98102.03
2022-09-05T10:35:13.253Z,98107.31
2022-09-05T10:37:13.086Z,98094.22
2022-09-05T10:39:45.510Z,98093.31
2022-09-05T10:42:16.787Z,98093.84
2022-09-05T10:44:51.485Z,98091.03
2022-09-05T10:47:34.406Z,98083.13
2022-09-05T10:50:12.511Z,98077.69
2022-09-05T10:53:15.457Z,98090.22
2022-09-05T10:55:56.757Z,98071.88
2022-09-05T11:02:22.883Z,98075.16
2022-09-05T11:02:31.033Z,98063.88
2022-09-05T11:04:46.569Z,98062.34
2022-09-05T11:07:27.812Z,98061.34
2022-09-05T11:10:14.252Z,98059.47
2022-09-05T11:13:01.556Z,98054.84
2022-09-05T11:15:35.308Z,98050.78
2022-09-05T11:18:10.369Z,98049.94
2022-09-05T11:20:54.767Z,98053.63
2022-09-05T11:23:32.247Z,98054.16
2022-09-05T11:26:07.438Z,98043.47
2022-09-05T11:28:55.763Z,98045.78
2022-09-05T11:32:05.800Z,98035.25
2022-09-05T11:39:54.716Z,98044.88
2022-09-05T11:40:07.455Z,98032.47
2022-09-05T11:41:29.285Z,98032.31
2022-09-05T11:44:27.326Z,98036.72
2022-09-05T11:47:27.923Z,98034.09
2022-09-05T11:50:25.257Z,98035.81
2022-09-05T11:53:29.178Z,98032.25
2022-09-05T11:56:42.648Z,98032.69
2022-09-05T11:59:36.187Z,98019.53
2022-09-05T12:02:27.470Z,98020.72
2022-09-05T12:05:48.291Z,98016.44
2022-09-05T12:08:12.033Z,98020.44
2022-09-05T12:10:53.634Z,98024.91
2022-09-05T12:13:35.313Z,98018.50
2022-09-05T12:16:20.152Z,98019.66
2022-09-05T12:19:19.233Z,98012.06
2022-09-05T12:22:18.463Z,98008.22
2022-09-05T12:26:02.879Z,98012.22
2022-09-05T12:29:28.087Z,98012.81
2022-09-05T12:36:07.081Z,98008.97
2022-09-05T12:40:54.997Z,98010.97
2022-09-05T12:41:36.612Z,98010.81
2022-09-05T12:42:10.054Z,98008.50
2022-09-05T12:42:55.971Z,98003.38
2022-09-05T12:45:45.449Z,97994.19
2022-09-05T12:48:19.919Z,98001.81
2022-09-05T12:50:58.084Z,97995.09
2022-09-05T12:53:27.080Z,97999.19
2022-09-05T12:56:41.410Z,97998.91
2022-09-05T13:03:05.627Z,97986.06
2022-09-05T13:03:14.502Z,97992.53
2022-09-05T13:04:48.702Z,97989.44
2022-09-05T13:07:38.904Z,97976.13
2022-09-05T13:12:45.253Z,97977.63
2022-09-05T13:14:54.036Z,97973.31
2022-09-05T13:16:00.286Z,97978.81
2022-09-05T13:18:37.807Z,97971.63
2022-09-05T13:21:11.257Z,97963.72
2022-09-05T13:23:45.585Z,97960.78
2022-09-05T13:26:23.899Z,97963.59
2022-09-05T13:29:11.032Z,97958.00
2022-09-05T13:37:56.247Z,97956.66
2022-09-05T13:38:11.969Z,97953.53
2022-09-05T13:38:12.703Z,97945.56
2022-09-05T13:40:41.826Z,97944.88
2022-09-05T13:43:12.429Z,97936.56
2022-09-05T13:46:03.819Z,97942.69
2022-09-05T13:51:37.858Z,97927.72
2022-09-05T13:54:36.438Z,97916.25
2022-09-05T13:57:31.745Z,97913.84
2022-09-05T14:00:38.381Z,97916.13
2022-09-05T14:03:43.521Z,97913.72
2022-09-05T14:06:47.394Z,97920.38
2022-09-05T14:09:36.600Z,97913.19
2022-09-05T14:12:15.670Z,97902.19
2022-09-05T14:17:56.677Z,97904.25
2022-09-05T14:20:49.623Z,97903.28
2022-09-05T14:23:22.670Z,97892.47
2022-09-05T14:25:55.410Z,97886.44
2022-09-05T14:28:29.003Z,97890.88
2022-09-05T14:36:09.396Z,97899.97
2022-09-05T14:37:43.228Z,97890.38
2022-09-05T14:37:51.714Z,97887.19
2022-09-05T14:40:35.829Z,97885.59
2022-09-05T14:43:24.460Z,97880.44
2022-09-05T14:46:13.526Z,97888.63
2022-09-05T14:49:10.924Z,97873.91
2022-09-05T14:51:46.938Z,97880.50
2022-09-05T15:02:38.613Z,97879.75
2022-09-05T15:02:47.775Z,97872.69
2022-09-05T15:03:05.566Z,97873.44
2022-09-05T15:05:41.817Z,97866.50
2022-09-05T15:08:42.552Z,97862.50
2022-09-05T15:12:23.111Z,97870.59
2022-09-05T15:14:01.908Z,97875.13
2022-09-05T15:16:31.317Z,97866.91
2022-09-05T15:18:59.849Z,97867.13
2022-09-05T15:21:34.536Z,97863.22
2022-09-05T15:24:13.486Z,97865.66
2022-09-05T15:26:52.809Z,97864.53
2022-09-05T15:29:26.179Z,97855.91
2022-09-05T15:32:11.978Z,97866.41
2022-09-05T15:34:40.753Z,97862.53
2022-09-05T15:37:28.309Z,97864.94
2022-09-05T15:40:07.556Z,97851.88
2022-09-05T15:42:51.707Z,97860.97
2022-09-05T15:45:25.322Z,97851.75
2022-09-05T15:48:08.708Z,97853.78
2022-09-05T15:50:42.637Z,97852.94
2022-09-05T15:53:14.850Z,97846.94
2022-09-05T15:55:58.217Z,97849.25
2022-09-05T15:58:53.335Z,97850.88
2022-09-05T16:01:48.657Z,97847.09
2022-09-05T16:09:16.615Z,97839.59
2022-09-05T16:10:35.909Z,97849.56
2022-09-05T16:10:36.109Z,97848.28
2022-09-05T16:12:50.469Z,97838.91
2022-09-05T16:17:36.380Z,97842.50
2022-09-05T16:23:23.938Z,97846.50
2022-09-05T16:23:24.619Z,97842.78
2022-09-05T16:24:05.386Z,97840.38
2022-09-05T16:26:41.223Z,97837.88
2022-09-05T16:29:22.497Z,97844.38
2022-09-05T16:32:15.651Z,97837.94
2022-09-05T16:34:52.654Z,97831.00
2022-09-05T16:37:26.868Z,97829.41
2022-09-05T16:39:59.875Z,97836.41
2022-09-05T16:42:46.773Z,97833.03
2022-09-05T16:45:26.143Z,97825.09
2022-09-05T16:48:03.058Z,97825.22
2022-09-05T16:50:38.640Z,97822.13
2022-09-05T16:53:30.127Z,97821.19
2022-09-05T16:56:03.713Z,97831.44
2022-09-05T16:58:34.923Z,97823.59
2022-09-05T17:01:20.519Z,97828.03
2022-09-05T17:03:56.135Z,97819.72
2022-09-05T17:06:37.495Z,97820.59
2022-09-05T17:09:19.681Z,97814.31
2022-09-05T17:12:01.456Z,97817.63
2022-09-05T17:14:36.321Z,97814.84
2022-09-05T17:17:36.149Z,97817.69
2022-09-05T17:20:05.907Z,97814.53
2022-09-05T17:26:14.567Z,97823.31
2022-09-05T17:29:23.471Z,97816.94
2022-09-05T17:29:34.489Z,97812.16
2022-09-05T17:31:55.881Z,97818.13
2022-09-05T17:34:58.803Z,97818.94
2022-09-05T17:38:13.703Z,97809.78
2022-09-05T17:41:16.641Z,97811.66
2022-09-05T17:43:51.501Z,97806.78
2022-09-05T17:46:24.250Z,97813.06
2022-09-05T17:49:17.906Z,97812.63
2022-09-05T17:52:19.470Z,97816.13
2022-09-05T17:54:52.689Z,97820.75
2022-09-05T17:57:39.324Z,97821.38
2022-09-05T18:00:45.263Z,97826.66
2022-09-05T18:04:15.845Z,97833.59
2022-09-05T18:06:59.820Z,97833.03
2022-09-05T18:10:14.852Z,97831.78
2022-09-05T18:13:14.057Z,97838.22
2022-09-05T18:16:12.609Z,97837.56
2022-09-05T18:19:32.651Z,97840.59
2022-09-05T18:21:49.771Z,97843.03
2022-09-05T18:24:33.428Z,97842.41
2022-09-05T18:27:44.034Z,97845.50
2022-09-05T18:30:11.557Z,97850.28
2022-09-05T18:32:42.936Z,97843.06
2022-09-05T18:35:37.891Z,97848.31
2022-09-05T18:38:51.016Z,97845.00
2022-09-05T18:41:22.144Z,97843.75
2022-09-05T18:44:13.948Z,97850.97
2022-09-05T18:46:50.827Z,97857.94
2022-09-05T18:50:22.367Z,97859.63
2022-09-05T18:52:23.441Z,97861.31
2022-09-05T18:55:30.100Z,97853.47
2022-09-05T18:57:51.048Z,97858.94
2022-09-05T19:00:41.628Z,97865.41
2022-09-05T19:03:24.828Z,97859.25
2022-09-05T19:06:02.902Z,97868.09
2022-09-05T19:08:49.070Z,97863.66
2022-09-05T19:11:27.699Z,97871.88
2022-09-05T19:14:25.625Z,97868.66
2022-09-05T19:16:50.202Z,97865.72
2022-09-05T19:19:24.875Z,97864.31
2022-09-05T19:22:13.259Z,97870.81
2022-09-05T19:24:46.213Z,97874.44
2022-09-05T19:30:55.812Z,97870.41
2022-09-05T19:36:53.189Z,97867.81
2022-09-05T19:36:58.388Z,97866.69
2022-09-05T19:37:13.092Z,97868.06
2022-09-05T19:40:28.045Z,97869.94
2022-09-05T19:47:25.377Z,97868.91
2022-09-05T19:47:44.518Z,97872.44
2022-09-05T19:47:57.626Z,97870.47
2022-09-05T19:50:20.899Z,97870.91
2022-09-05T19:52:53.617Z,97871.00
2022-09-05T19:55:24.042Z,97868.78
2022-09-05T19:58:19.379Z,97870.91
2022-09-05T20:00:50.436Z,97875.69
2022-09-05T20:03:38.309Z,97874.91
2022-09-05T20:06:28.988Z,97872.44
2022-09-05T20:09:14.373Z,97875.63
2022-09-05T20:11:47.323Z,97872.72
2022-09-05T20:14:21.057Z,97869.50
2022-09-05T20:16:50.475Z,97875.31
2022-09-05T20:19:32.496Z,97874.50
2022-09-05T20:22:10.096Z,97884.47
2022-09-05T20:24:54.159Z,97868.22
2022-09-05T20:27:27.041Z,97867.22
2022-09-05T20:29:59.802Z,97873.00
2022-09-05T20:32:39.271Z,97865.81
2022-09-05T20:40:43.303Z,97861.75
2022-09-05T20:43:18.114Z,97869.25
2022-09-05T20:43:31.791Z,97879.91
2022-09-05T20:43:55.088Z,97869.06
2022-09-05T20:50:08.300Z,97866.66
2022-09-05T20:54:07.812Z,97868.97
2022-09-05T20:54:16.971Z,97872.50
2022-09-05T20:55:38.508Z,97872.50
2022-09-05T20:58:13.075Z,97857.72
2022-09-05T21:01:19.487Z,97859.72
2022-09-05T21:03:38.138Z,97862.75
2022-09-05T21:06:20.434Z,97858.66
2022-09-05T21:08:49.244Z,97861.53
2022-09-05T21:11:18.140Z,97856.56
2022-09-05T21:13:53.441Z,97856.25
2022-09-05T21:16:29.081Z,97862.91
2022-09-05T21:18:57.202Z,97869.13
2022-09-05T21:21:28.594Z,97860.22
2022-09-05T21:24:16.548Z,97872.47
2022-09-05T21:26:50.976Z,97865.38
2022-09-05T21:29:33.265Z,97865.94
2022-09-05T21:32:10.428Z,97871.97
2022-09-05T21:34:45.470Z,97866.13
2022-09-05T21:37:16.532Z,97863.38
2022-09-05T21:39:58.683Z,97862.56
2022-09-05T21:45:54.250Z,97863.47
2022-09-05T21:47:46.102Z,97865.94
2022-09-05T21:48:10.863Z,97862.38
2022-09-05T21:50:44.357Z,97863.19
2022-09-05T21:57:00.386Z,97861.41
2022-09-05T21:59:27.445Z,97861.59
2022-09-05T21:59:27.447Z,97860.19
2022-09-05T22:01:56.042Z,97871.50
2022-09-05T22:04:24.501Z,97871.72
2022-09-05T22:06:54.204Z,97870.09
2022-09-05T22:09:24.043Z,97867.88
2022-09-05T22:11:52.581Z,97867.88
2022-09-05T22:14:22.212Z,97866.53
2022-09-05T22:16:51.468Z,97863.44
2022-09-05T22:19:29.938Z,97870.28
2022-09-05T22:22:16.517Z,97866.28
2022-09-05T22:24:49.475Z,97856.44
2022-09-05T22:27:19.369Z,97853.72
2022-09-05T22:29:48.913Z,97861.84
2022-09-05T22:32:32.342Z,97866.38
2022-09-05T22:35:26.776Z,97869.28
2022-09-05T22:38:08.363Z,97864.69
2022-09-05T22:40:40.543Z,97865.91
2022-09-05T22:43:10.241Z,97852.19
2022-09-05T22:45:40.055Z,97854.50
2022-09-05T22:48:09.720Z,97858.69
2022-09-05T22:50:40.212Z,97853.22
2022-09-05T22:53:09.872Z,97861.25
2022-09-05T22:55:41.276Z,97855.16
2022-09-05T22:58:10.948Z,97848.28
2022-09-05T23:00:39.567Z,97849.09
2022-09-05T23:03:08.340Z,97847.03
2022-09-05T23:05:36.892Z,97847.75
2022-09-05T23:08:07.507Z,97844.59
2022-09-05T23:10:37.249Z,97848.38
2022-09-05T23:13:06.203Z,97850.66
2022-09-05T23:15:35.064Z,97852.41
2022-09-05T23:18:03.971Z,97848.28
2022-09-05T23:20:33.693Z,97839.97
2022-09-05T23:23:05.170Z,97836.66
2022-09-05T23:25:35.351Z,97845.47
2022-09-05T23:28:06.719Z,97839.28
2022-09-05T23:30:35.348Z,97831.34
2022-09-05T23:33:05.980Z,97828.59
2022-09-05T23:35:34.552Z,97835.94
2022-09-05T23:38:02.859Z,97836.28
2022-09-05T23:40:31.194Z,97831.09
2022-09-05T23:43:01.324Z,97830.63
2022-09-05T23:45:30.760Z,97828.13
2022-09-05T23:47:59.680Z,97824.22
2022-09-05T23:50:29.485Z,97831.31
2022-09-05T23:52:57.961Z,97826.84
2022-09-05T23:55:26.316Z,97822.69
2022-09-05T23:57:58.287Z,97820.75
